createdAt,value
2022-10-05T08:54:04.207Z,59421.81
2022-10-05T08:56:55.747Z,59421.81
2022-10-05T09:07:52.572Z,101365.63
2022-10-05T09:11:07.008Z,101374.72
2022-10-05T09:13:51.221Z,101363.28
2022-10-05T09:16:48.035Z,101359.81
2022-10-05T09:27:39.323Z,101361.75
2022-10-05T09:30:27.055Z,101365.44
2022-10-05T09:36:34.760Z,101364.09
2022-10-05T09:39:26.196Z,101362.34
2022-10-05T09:42:34.840Z,101365.88
2022-10-05T09:45:40.198Z,101366.28
2022-10-05T09:48:47.683Z,101357.16
2022-10-05T09:51:55.055Z,101358.13
2022-10-05T09:54:31.229Z,101353.13
2022-10-05T09:57:34.737Z,101333.13
2022-10-05T10:09:10.274Z,101342.72
2022-10-05T10:12:14.700Z,101343.81
2022-10-05T10:15:19.567Z,101346.47
2022-10-05T10:18:18.388Z,101334.47
2022-10-05T10:21:11.942Z,101331.28
2022-10-05T10:24:32.168Z,101322.56
2022-10-05T10:27:05.444Z,101324.91
2022-10-05T10:30:30.179Z,101322.38
2022-10-05T10:33:43.764Z,101314.06
2022-10-05T10:36:20.567Z,101316.97
2022-10-05T10:39:15.476Z,101314.06
2022-10-05T10:41:48.511Z,101312.94
2022-10-05T10:45:00.152Z,101317.00
2022-10-05T10:47:50.519Z,101312.50
2022-10-05T10:50:26.292Z,101309.22
2022-10-05T10:53:23.905Z,101307.66
2022-10-05T10:56:18.255Z,101302.22
2022-10-05T10:58:50.713Z,101285.94
2022-10-05T11:01:56.783Z,101279.03
2022-10-05T11:05:02.926Z,101273.78
2022-10-05T11:07:44.751Z,101267.06
2022-10-05T11:10:32.887Z,101263.25
2022-10-05T11:13:40.663Z,101272.09
2022-10-05T11:16:52.099Z,101265.50
2022-10-05T11:20:02.903Z,101268.84
2022-10-05T11:22:46.799Z,101275.97
2022-10-05T11:25:46.665Z,101252.91
2022-10-05T11:28:55.267Z,101252.72
2022-10-05T11:32:18.124Z,101244.72
2022-10-05T11:35:06.115Z,101242.03
2022-10-05T11:38:26.869Z,101237.47
2022-10-05T11:41:50.111Z,101239.22
2022-10-05T11:44:58.800Z,101234.59
2022-10-05T11:47:37.881Z,101223.88
2022-10-05T11:50:23.073Z,101228.22
2022-10-05T11:53:02.970Z,101215.28
2022-10-05T11:55:42.188Z,101213.63
2022-10-05T11:58:35.530Z,101213.69
2022-10-05T12:01:19.849Z,101212.66
2022-10-05T12:04:35.850Z,101194.53
2022-10-05T12:07:43.014Z,101197.69
2022-10-05T12:10:35.583Z,101180.13
2022-10-05T12:13:29.069Z,101190.63
2022-10-05T12:16:04.958Z,101185.19
2022-10-05T12:18:32.605Z,101177.72
2022-10-05T12:21:06.178Z,101176.81
2022-10-05T12:23:58.905Z,101156.88
2022-10-05T12:26:37.720Z,101165.19
2022-10-05T12:29:22.502Z,101164.88
2022-10-05T12:32:04.281Z,101165.22
2022-10-05T12:34:47.344Z,101151.44
2022-10-05T12:37:58.544Z,101155.00
2022-10-05T12:40:46.416Z,101157.66
2022-10-05T12:43:51.283Z,101162.34
2022-10-05T12:46:58.357Z,101159.34
2022-10-05T12:49:33.716Z,101157.66
2022-10-05T12:52:45.885Z,101165.59
2022-10-05T12:55:36.784Z,101163.00
2022-10-05T12:58:25.012Z,101160.63
2022-10-05T13:01:18.083Z,101167.09
2022-10-05T13:04:19.029Z,101182.47
2022-10-05T13:07:18.207Z,101165.94
2022-10-05T13:10:13.801Z,101169.50
2022-10-05T13:12:48.110Z,101164.34
2022-10-05T13:15:33.377Z,101149.00
2022-10-05T13:19:01.261Z,101147.91
2022-10-05T13:21:40.874Z,101141.94
2022-10-05T13:24:29.873Z,101138.78
2022-10-05T13:27:22.621Z,101140.84
2022-10-05T13:30:19.143Z,101142.59
2022-10-05T13:33:47.131Z,101133.03
2022-10-05T13:36:46.604Z,101137.06
2022-10-05T13:39:33.037Z,101148.91
2022-10-05T13:42:41.218Z,101148.97
2022-10-05T13:45:27.287Z,101162.97
2022-10-05T13:48:52.761Z,101174.41
2022-10-05T13:51:34.105Z,101167.56
2022-10-05T13:54:27.617Z,101169.53
2022-10-05T13:57:46.262Z,101171.66
2022-10-05T14:00:26.281Z,101167.59
2022-10-05T14:02:57.450Z,101171.66
2022-10-05T14:05:37.846Z,101176.81
2022-10-05T14:08:10.196Z,101171.09
2022-10-05T14:10:45.228Z,101184.00
2022-10-05T14:13:32.141Z,101174.38
2022-10-05T14:16:22.052Z,101171.03
2022-10-05T14:19:08.232Z,101172.31
2022-10-05T14:22:17.493Z,101166.25
2022-10-05T14:25:10.310Z,101173.34
2022-10-05T14:27:51.388Z,101177.69
2022-10-05T14:30:26.817Z,101177.28
2022-10-05T14:33:07.998Z,101184.84
2022-10-05T14:36:00.109Z,101178.34
2022-10-05T14:38:52.906Z,101183.16
2022-10-05T14:41:27.550Z,101184.25
2022-10-05T14:52:35.087Z,101223.41
2022-10-05T14:55:35.302Z,101232.03
2022-10-05T14:58:46.218Z,101259.16
2022-10-05T15:01:37.105Z,101261.25
2022-10-05T15:05:02.360Z,101274.59
2022-10-05T15:07:44.587Z,101290.81
2022-10-05T15:10:39.334Z,101298.75
2022-10-05T15:30:04.937Z,101308.16
2022-10-05T15:32:43.801Z,101310.56
2022-10-05T15:35:56.076Z,101297.31
2022-10-05T15:38:37.473Z,101302.09
2022-10-05T15:41:50.490Z,101309.94
2022-10-05T15:44:42.368Z,101310.19
2022-10-05T15:47:43.486Z,101298.88
2022-10-05T15:50:26.270Z,101312.53
2022-10-05T16:01:23.152Z,101299.38
2022-10-05T16:04:11.353Z,101291.38
2022-10-05T16:07:17.905Z,101291.31
2022-10-05T16:10:09.787Z,101296.53
2022-10-05T16:13:07.497Z,101296.47
2022-10-05T16:15:50.067Z,101291.38
2022-10-05T16:18:48.170Z,101300.44
2022-10-05T16:22:16.469Z,101288.28
2022-10-05T16:25:07.554Z,101307.31
2022-10-05T16:28:11.576Z,101305.56
2022-10-05T16:31:11.666Z,101317.22
2022-10-05T16:34:09.459Z,101311.97
2022-10-05T16:36:58.360Z,101324.41
2022-10-05T16:39:51.972Z,101322.09
2022-10-05T16:42:57.837Z,101306.25
2022-10-05T16:46:22.059Z,101304.50
2022-10-05T16:48:58.503Z,101310.63
2022-10-05T16:51:33.584Z,101318.72
2022-10-05T16:54:24.775Z,101326.84
2022-10-05T16:57:02.570Z,101317.28
2022-10-05T17:00:01.642Z,101319.84
2022-10-05T17:03:02.145Z,101327.25
2022-10-05T17:05:55.886Z,101321.94
2022-10-05T17:25:06.212Z,101333.91
2022-10-05T17:27:33.301Z,101333.91
2022-10-05T17:30:48.576Z,101337.34
2022-10-05T17:33:30.664Z,101340.31
2022-10-05T17:36:04.740Z,101332.25
2022-10-05T17:38:31.672Z,101339.28
2022-10-05T17:41:17.795Z,101357.03
2022-10-05T17:52:45.225Z,101352.81
2022-10-05T17:55:45.106Z,101359.94
2022-10-05T17:58:24.797Z,101365.38
2022-10-05T18:00:57.679Z,101369.78
2022-10-05T18:03:47.566Z,101368.03
2022-10-05T18:06:31.928Z,101367.91
2022-10-05T18:09:23.111Z,101367.88
2022-10-05T18:12:17.866Z,101363.47
2022-10-05T18:15:14.356Z,101367.00
2022-10-05T18:17:59.928Z,101367.09
2022-10-05T18:20:35.021Z,101377.78
2022-10-05T18:23:09.465Z,101374.09
2022-10-05T18:26:20.471Z,101379.38
2022-10-05T18:29:14.367Z,101374.88
2022-10-05T18:32:01.290Z,101371.38
2022-10-05T18:39:30.674Z,101386.47
2022-10-05T18:42:51.668Z,101392.72
2022-10-05T18:46:00.489Z,101391.00
2022-10-05T18:48:43.117Z,101395.47
2022-10-05T18:51:31.083Z,101393.63
2022-10-05T18:54:54.785Z,101394.50
2022-10-05T18:57:41.795Z,101391.88
2022-10-05T19:00:22.458Z,101402.63
2022-10-05T19:03:08.208Z,101403.50
2022-10-05T19:06:22.178Z,101407.00
2022-10-05T19:09:02.690Z,101412.44
2022-10-05T19:12:09.169Z,101420.38
2022-10-05T19:15:22.143Z,101422.19
2022-10-05T19:18:35.036Z,101419.28
2022-10-05T19:21:30.352Z,101425.50
2022-10-05T19:24:06.018Z,101415.84
2022-10-05T19:27:00.098Z,101429.03
2022-10-05T19:29:36.475Z,101435.28
2022-10-05T19:32:30.582Z,101433.44
2022-10-05T19:35:18.534Z,101432.47
2022-10-05T19:38:25.563Z,101437.84
2022-10-05T19:41:14.923Z,101430.03
2022-10-05T19:44:02.947Z,101432.69
2022-10-05T19:47:14.889Z,101445.91
2022-10-05T19:49:52.368Z,101454.75
2022-10-05T19:52:48.975Z,101455.56
2022-10-05T19:55:31.275Z,101464.31
2022-10-05T19:58:01.353Z,101492.84
2022-10-05T20:00:32.719Z,101489.28
2022-10-05T20:03:31.168Z,101519.69
2022-10-05T20:06:01.602Z,101528.94
2022-10-05T20:08:43.737Z,101529.09
2022-10-05T20:11:16.006Z,101524.06
2022-10-05T20:13:46.788Z,101534.84
2022-10-05T20:16:39.962Z,101537.53
2022-10-05T20:19:49.805Z,101544.78
2022-10-05T20:22:37.379Z,101559.97
2022-10-05T20:25:17.812Z,101561.78
2022-10-05T20:27:55.636Z,101561.84
2022-10-05T20:30:31.322Z,101571.63
2022-10-05T20:33:01.489Z,101574.97
2022-10-05T20:35:30.959Z,101578.47
2022-10-05T20:38:01.800Z,101579.56
2022-10-05T20:40:32.322Z,101582.38
2022-10-05T20:42:59.455Z,101590.44
2022-10-05T20:45:28.397Z,101587.81
2022-10-05T20:47:55.381Z,101602.91
2022-10-05T20:50:22.842Z,101600.28
2022-10-05T20:52:49.938Z,101612.75
2022-10-05T20:55:19.542Z,101618.16
2022-10-05T20:57:47.059Z,101622.63
2022-10-05T21:00:15.439Z,101630.59
2022-10-05T21:02:42.385Z,101635.97
2022-10-05T21:05:09.650Z,101643.94
2022-10-05T21:07:36.984Z,101637.78
2022-10-05T21:10:04.871Z,101651.03
2022-10-05T21:12:34.040Z,101651.09
2022-10-05T21:15:01.502Z,101663.50
2022-10-05T21:17:28.503Z,101665.22
2022-10-05T21:19:55.485Z,101683.91
2022-10-05T21:22:22.709Z,101688.41
2022-10-05T21:24:49.765Z,101715.91
2022-10-05T21:27:16.915Z,101748.94
2022-10-05T21:29:44.280Z,101753.91
2022-10-05T21:32:12.057Z,101775.56
2022-10-05T21:34:40.221Z,101781.28
2022-10-05T21:37:08.479Z,101787.78
2022-10-05T21:39:37.641Z,101780.91
2022-10-05T21:42:05.570Z,101783.69
2022-10-05T21:44:33.201Z,101795.28
2022-10-05T21:47:01.609Z,101791.84
2022-10-05T21:49:31.907Z,101794.56
2022-10-05T21:52:04.074Z,101788.41
2022-10-05T21:54:33.376Z,101784.97
2022-10-05T21:57:00.714Z,101785.88
2022-10-05T21:59:33.076Z,101784.13
2022-10-05T22:02:00.252Z,101791.19
2022-10-05T22:04:27.290Z,101787.69
2022-10-05T22:06:55.840Z,101800.94
2022-10-05T22:09:23.154Z,101794.81
2022-10-05T22:11:50.747Z,101802.75
2022-10-05T22:14:17.784Z,101809.81
2022-10-05T22:16:45.400Z,101804.53
2022-10-05T22:19:19.120Z,101811.59
2022-10-05T22:21:46.193Z,101812.50
2022-10-05T22:24:13.185Z,101827.50
2022-10-05T22:26:43.740Z,101824.81
2022-10-05T22:29:10.973Z,101838.09
2022-10-05T22:31:39.358Z,101840.75
2022-10-05T22:34:06.369Z,101852.22
2022-10-05T22:36:37.312Z,101854.03
2022-10-05T22:39:05.029Z,101861.13
2022-10-05T22:41:32.402Z,101869.94
2022-10-05T22:44:00.390Z,101874.34
2022-10-05T22:46:27.593Z,101882.31
2022-10-05T22:48:54.727Z,101888.50
2022-10-05T22:51:21.701Z,101888.50
2022-10-05T22:53:48.712Z,101886.75
2022-10-05T22:56:17.295Z,101897.34
2022-10-05T22:58:45.197Z,101896.44
2022-10-05T23:01:16.573Z,101909.69
2022-10-05T23:03:44.965Z,101915.91
2022-10-05T23:06:19.363Z,101911.47
2022-10-05T23:08:47.017Z,101917.66
2022-10-05T23:11:17.190Z,101919.44
2022-10-05T23:13:44.510Z,101936.19
2022-10-05T23:16:17.748Z,101921.16
2022-10-05T23:18:47.484Z,101922.06
2022-10-05T23:21:14.578Z,101933.50
2022-10-05T23:23:47.415Z,101931.75
2022-10-05T23:26:15.579Z,101944.09
2022-10-05T23:28:47.330Z,101948.53
2022-10-05T23:31:18.220Z,101953.81
2022-10-05T23:33:45.472Z,101958.22
2022-10-05T23:36:32.866Z,101967.94
2022-10-05T23:39:00.378Z,101977.63
2022-10-05T23:41:27.711Z,101980.25
2022-10-05T23:43:55.300Z,101992.63
2022-10-05T23:46:22.687Z,101982.88
2022-10-05T23:48:53.199Z,101993.47
2022-10-05T23:51:20.709Z,102003.19
2022-10-05T23:53:47.629Z,102001.41
2022-10-05T23:56:14.603Z,102014.66
2022-10-05T23:58:41.638Z,102019.03
